Capitol Logistics 1150


EHAM
Schiphol International Airport
Amsterdam, NL
EBLG
Liège Airport
Liege, BE

Activity Log

Date Flight Route Aircraft Duration
05/31/2020 CPX1150 KUDA1R WOODY N872 NIK NIK5X B738 0h 37m
10/28/2019 CPX750 Not Available B738 0h 54m
10/22/2019 CPX750 N0428F230 NIK NIK5D B738 1h 10m

Route Details

Aircraft Information
Primary: Boeing 737-800BCF
Backup: Not Available
Route Data
Distance: 104nm
Sched. Duration: 1h 00m
Avg. Duration: 0h 67m (-33m)
Times Flown: 3
Recm'd Route: Not Available
Planned Altitude: 20,000ft
Origin Wx: EHAM 291955Z 21012KT 180V240 9999 SCT007 BKN017 13/12 Q1012 TEMPO BKN007
Dest. Wx: EBLG 291950Z 22015KT 9999 SCT012 BKN015 12/10 Q1018 TEMPO BKN012
Notes:

Financial History
Total Freight: 115,104lbs
Average Load: 38,368lbs/flt
Fuel Used: 13,023lbs
Avg. Fuel Used: 4,341lbs/flt
Fuel Expense: $10,418
Avg. Fuel Expense: $3,473
Avg. Fuel Cost: $0.80/lbs
Total Gross Income: $228,429
Pilot Pay: $687
Total Expenses: $24,826
Total Revenue: $192,617
Average Revenue: $76,142.88